Kerby, OR (97531)

6:26 AM PDT on August 31, 2015 (GMT -0700)
OREGON BUILDERS GULD LLC, 97523 | | Change Station
CLOSE
Current Station
Personal Weather Station
Location: Cave Junction, OR
Elevation: 1343 ft
Nearby Weather Stations

Elev 1343 ft 42.16 °N, 123.65 °W | Updated 6 minutes ago

Clear
Clear
43.8 °F
Feels Like 44 °F
N
0.0
Wind Variable Wind from NW

Today
High -- | Low -- °F
--% Chance of Precip.
Yesterday
High -- | Low -- °F
Precip. -- in
6:38 AM 7:50 PM
Waning Gibbous, 95% visible
Pressure 30.04 in
Visibility 9.0 miles
Clouds Clear
Windchill 44 °F
Dew Point 43 °F
Humidity 97%
Rainfall 0.00 in
Snow Depth Not available.
UV 0 out of 12
Pollen 5.80 out of 12
Air Quality Not available.
Flu Activity Not available.
METAR KBOK 311256Z AUTO 00000KT 9SM CLR 12/12 A3004 RMK AO2 T01160116 SLP173
Pressure 30.04 in
Visibility 9.0 miles
Clouds Clear
Windchill 44 °F
Dew Point 43 °F
Humidity 97%
Rainfall 0.00 in
Snow Depth Not available.
UV 0 out of 12
Pollen 5.80 out of 12
Air Quality Not available.
Flu Activity Not available.
METAR KBOK 311256Z AUTO 00000KT 9SM CLR 12/12 A3004 RMK AO2 T01160116 SLP173

10-Day Weather Forecast

×

Almanac

Astronomy

Aug. 31, 2015 Rise Set
Actual Time
Civil Twilight
Nautical Twilight
Astronomical Twilight
Moon
Length of Visible Light
Length of Day
Tomorrow will be .
, % of the Moon is Illuminated

Today's Extremes

State Highs State Lows

Community

WunderPhotos

Upload Photos

1,851,231 photos uploaded!

WunderBlogs® & News

Nearby

Air Quality

  Air Quality AQ Index Pollutant
Not available.

Snow Depth

Station Depth Elevation

Earthquake Activity

City Distance Mag. Time & Date
Minimum magnitude displayed is 2.5.

Coastal Water Temperatures

Place Temperature

Stations

Nearby Weather Stations

Station Location Temp. Windchill Dew Point Humidity Wind Precip. Elev Updated Type